This is the latest recevied weather packets stored in our database for station/object G0TQM-11. If no packets are shown the sender has not sent any weather packets the latest 10 day(s).
| Time | Temp. | Humidity | Pressure | Rain* | Wind** | Luminosity | Snow |
|---|---|---|---|---|---|---|---|
| 1777665899 | 12.78° C | 47% | 1015.9 hPa | - | - | - | - |
| 1777664698 | 13.33° C | 47% | 1015.9 hPa | - | - | - | - |
| 1777663498 | 13.33° C | 46% | 1015.9 hPa | - | - | - | - |
| 1777662297 | 13.89° C | 47% | 1015.9 hPa | - | - | - | - |
| 1777661097 | 13.89° C | 46% | 1015.9 hPa | - | - | - | - |
| 1777659897 | 14.44° C | 46% | 1015.9 hPa | - | - | - | - |
| 1777658697 | 15° C | 46% | 1015.9 hPa | - | - | - | - |
| 1777657497 | 15° C | 46% | 1015.9 hPa | - | - | - | - |
| 1777656296 | 15° C | 46% | 1015.8 hPa | - | - | - | - |
| 1777655096 | 15.56° C | 45% | 1015.9 hPa | - | - | - | - |
| 1777653896 | 15.56° C | 46% | 1015.9 hPa | - | - | - | - |
| 1777652696 | 16.11° C | 44% | 1015.9 hPa | - | - | - | - |
| 1777651496 | 16.67° C | 44% | 1015.8 hPa | - | - | - | - |
| 1777650296 | 17.22° C | 44% | 1015.9 hPa | - | - | - | - |
| 1777649096 | 17.78° C | 44% | 1016 hPa | - | - | - | - |
| 1777647895 | 18.33° C | 43% | 1016.2 hPa | - | - | - | - |
| 1777646695 | 18.89° C | 40% | 1016.2 hPa | - | - | - | - |
| 1777645495 | 18.33° C | 40% | 1016.2 hPa | - | - | - | - |
| 1777644295 | 18.33° C | 40% | 1016.4 hPa | - | - | - | - |
| 1777643095 | 17.78° C | 41% | 1016.5 hPa | - | - | - | - |
| 1777641895 | 17.22° C | 42% | 1016.5 hPa | - | - | - | - |
| 1777640695 | 17.22° C | 42% | 1016.5 hPa | - | - | - | - |
| 1777639494 | 17.22° C | 41% | 1016.5 hPa | - | - | - | - |
| 1777638294 | 17.78° C | 41% | 1016.4 hPa | - | - | - | - |
| 1777637094 | 19.44° C | 37% | 1016.3 hPa | - | - | - | - |
* Rain since midnight (hover to see other rain measurements)
** Current wind speed in m/s (hover to see current wind gust speed)